SpazioLink.com il tuo mini portale

Terremoti in Italia, posizione geografica

Spaziolink il MiniPortale

Home Sfondi Cerca SuperEnalotto Posizione navi Terremoti Directory Barzellette Forum Giochi Meteo Gifs Software
Lista dei terremoti in Italia in tempo reale dopo l'elaborazione dei valori rilevati dai sensori dislocati nelle zone interessate, comprendenti gli eventi sismici di elevata magnitudo sull'intero globo, per visualizzare la posizione dell'epicentro su Google Maps cliccare sul nome del luogo evidenziato in blu.
DATA ORA MAG ≥ 2 ZONA REGIONE LAT LONG PROF km
24/01/2020 08:24:19 mb 5.0 Northern Algeria (Land: Algeria) Mondo 36.75 5.59 9.8
24/01/2020 01:37:10 ML 2.8 3 km a ovest di Paludi (CS) Calabria 39.54 16.65 26.7
23/01/2020 19:27:52 ML 2.8 5 km a nord di Albi (CZ) Calabria 39.07 16.61 5.5
23/01/2020 17:20:11 ML 2.5 Tirreno Meridionale (MARE) Mare 39.20 15.21 258.2
23/01/2020 06:53:06 Mwp 6.0 Andreanof Islands, Aleutian Islands, United States (Sea: United States) Mondo 51.91 -177.73 10.2
23/01/2020 06:42:38 ML 2.8 5 km a nord di Albi (CZ) Calabria 39.07 16.61 2.0
23/01/2020 05:32:32 ML 3.8 Costa Calabra nord-occidentale (Cosenza) Mare 39.53 15.88 273.7
23/01/2020 04:42:31 ML 2.0 5 km a nord di Albi (CZ) Calabria 39.07 16.60 5.1
23/01/2020 00:40:41 ML 2.4 4 km a sud di Longi (ME) Sicilia 37.99 14.74 30.8
22/01/2020 22:51:17 ML 2.5 5 km a nord di Albi (CZ) Calabria 39.07 16.60 4.1
22/01/2020 15:57:20 ML 2.3 Costa Marchigiana Anconetana (Ancona) Mare 43.79 13.24 9.7
22/01/2020 10:18:23 ML 2.4 1 km a sud di Tizzano Val Parma (PR) Emilia Romagna 44.51 10.20 19.7
22/01/2020 02:13:12 ML 2.0 Costa Siciliana nord-orientale (Messina) Mare 38.40 15.36 105.5
21/01/2020 20:25:13 ML 2.2 1 km a est di Ello (LC) Mondo 45.79 9.37 12.3
21/01/2020 20:04:33 ML 3.0 2 km a nord-ovest di Cutigliano (PT) Toscana 44.12 10.74 11.2
21/01/2020 19:51:14 ML 2.4 6 km a est di Bagni di Lucca (LU) Toscana 44.01 10.67 53.1
21/01/2020 16:21:13 ML 2.1 3 km a ovest di Amatrice (RI) Lazio 42.63 13.25 13.2
21/01/2020 04:24:54 ML 3.6 4 km a sud-est di Carpino (FG) Puglia 41.82 15.89 21.8
21/01/2020 01:05:47 ML 2.1 2 km a sud-est di Castiglione dei Pepoli (BO) Emilia Romagna 44.13 11.18 9.1
21/01/2020 00:42:01 ML 2.0 3 km a sud-est di Castiglione dei Pepoli (BO) Emilia Romagna 44.12 11.18 9.2
20/01/2020 19:55:14 ML 2.2 6 km a ovest di Urbino (PU) Marche 43.75 12.57 38.1
20/01/2020 19:44:11 ML 2.5 Slovenia (SLOVENIA) Mondo 45.89 14.10 5.9
20/01/2020 19:06:23 ML 2.1 3 km a est di Rivarolo del Re ed Uniti (CR) Lombardia 45.04 10.50 9.1
20/01/2020 14:48:25 ML 2.2 6 km a nord di Albi (CZ) Calabria 39.08 16.60 6.3
20/01/2020 06:58:26 ML 2.6 6 km a nord di Albi (CZ) Calabria 39.07 16.61 5.8
20/01/2020 06:06:39 ML 2.9 6 km a nord di Albi (CZ) Calabria 39.08 16.61 5.8
20/01/2020 05:55:59 ML 2.1 6 km a nord di Albi (CZ) Calabria 39.08 16.61 5.4
20/01/2020 00:58:43 ML 2.2 4 km a nord-ovest di Cantalupo Ligure (AL) Piemonte 44.74 9.00 10.1
19/01/2020 17:58:19 Mwp 6.2 Minahassa Peninsula, Sulawesi, Indonesia (Sea: Indonesia) Mondo -0.06 123.87 123.0
19/01/2020 14:28:00 Mwp 6.0 Southern Xinjiang, China (Land: China) Mondo 39.78 77.16 10.2
19/01/2020 13:52:33 mb 4.4 Albania Mondo 41.80 20.19 10.1
19/01/2020 13:38:16 mb 4.4 Albania Mondo 41.74 20.15 10.0
19/01/2020 08:59:39 ML 2.6 4 km a est di Borghetto di Borbera (AL) Piemonte 44.73 8.99 9.0
19/01/2020 06:22:06 ML 3.1 2 km a sud-ovest di Neive (CN) Piemonte 44.72 8.10 11.6
18/01/2020 21:52:05 ML 2.3 4 km a sud-est di Balsorano (AQ) Abruzzo 41.78 13.60 14.4
18/01/2020 15:12:06 ML 3.3 2 km a nord-ovest di Papasidero (CS) Calabria 39.88 15.89 272.4
18/01/2020 09:28:36 ML 2.2 2 km a est di Antillo (ME) Sicilia 37.98 15.26 22.3
18/01/2020 01:27:23 ML 2.1 5 km nord-est Albi (CZ) Calabria 39.07 16.62 8.5
17/01/2020 13:14:29 ML 2.2 5 km a sud-ovest di Crognaleto (TE) Abruzzo 42.52 13.43 15.0
17/01/2020 05:13:08 ML 2.3 Costa Siciliana nord-orientale (Messina) Mare 38.30 15.13 129.4
17/01/2020 02:12:24 ML 2.7 4 km a sud di Troina (EN) Sicilia 37.75 14.61 26.7
- frasi d'auguri - subnet mask - partners - ipcheck - wi-fi - favicon - speedtest - programmone - calendariofeste - screenmates -
Locations of visitors to this page